sensor_id;sensor_type;location;lat;lon;timestamp;P1;durP1;ratioP1;P2;durP2;ratioP2
8594;SDS011;4335;48.860;9.198;2024-01-06T00:02:20;3.73;;;3.37;;
8594;SDS011;4335;48.860;9.198;2024-01-06T00:04:47;5.10;;;3.80;;
8594;SDS011;4335;48.860;9.198;2024-01-06T00:07:14;5.87;;;3.50;;
8594;SDS011;4335;48.860;9.198;2024-01-06T00:09:40;5.50;;;3.30;;
8594;SDS011;4335;48.860;9.198;2024-01-06T00:12:08;7.73;;;3.30;;
8594;SDS011;4335;48.860;9.198;2024-01-06T00:14:35;3.43;;;2.97;;
8594;SDS011;4335;48.860;9.198;2024-01-06T00:17:01;6.50;;;3.10;;
8594;SDS011;4335;48.860;9.198;2024-01-06T00:19:28;6.00;;;4.10;;
8594;SDS011;4335;48.860;9.198;2024-01-06T00:21:55;5.63;;;3.10;;
8594;SDS011;4335;48.860;9.198;2024-01-06T00:24:22;3.90;;;2.87;;
8594;SDS011;4335;48.860;9.198;2024-01-06T00:26:51;4.50;;;3.40;;
8594;SDS011;4335;48.860;9.198;2024-01-06T00:29:40;4.93;;;3.70;;
8594;SDS011;4335;48.860;9.198;2024-01-06T00:32:07;3.90;;;3.10;;
8594;SDS011;4335;48.860;9.198;2024-01-06T00:34:39;5.80;;;3.17;;
8594;SDS011;4335;48.860;9.198;2024-01-06T00:37:06;5.20;;;3.10;;
8594;SDS011;4335;48.860;9.198;2024-01-06T00:39:32;4.03;;;3.60;;
8594;SDS011;4335;48.860;9.198;2024-01-06T00:41:59;3.87;;;3.27;;
8594;SDS011;4335;48.860;9.198;2024-01-06T00:44:26;6.73;;;4.07;;
8594;SDS011;4335;48.860;9.198;2024-01-06T00:46:53;6.50;;;3.77;;
8594;SDS011;4335;48.860;9.198;2024-01-06T00:49:23;6.20;;;4.40;;
8594;SDS011;4335;48.860;9.198;2024-01-06T00:51:49;6.93;;;3.57;;
8594;SDS011;4335;48.860;9.198;2024-01-06T00:54:16;5.53;;;3.53;;
8594;SDS011;4335;48.860;9.198;2024-01-06T00:56:44;3.83;;;3.27;;
8594;SDS011;4335;48.860;9.198;2024-01-06T00:59:14;5.73;;;3.47;;
8594;SDS011;4335;48.860;9.198;2024-01-06T01:01:44;5.17;;;3.13;;
8594;SDS011;4335;48.860;9.198;2024-01-06T01:04:10;4.60;;;3.07;;
8594;SDS011;4335;48.860;9.198;2024-01-06T01:06:46;6.37;;;3.50;;
8594;SDS011;4335;48.860;9.198;2024-01-06T01:09:19;6.73;;;3.20;;
8594;SDS011;4335;48.860;9.198;2024-01-06T01:11:49;7.60;;;3.27;;
8594;SDS011;4335;48.860;9.198;2024-01-06T01:14:21;4.67;;;2.57;;
8594;SDS011;4335;48.860;9.198;2024-01-06T01:16:49;7.10;;;2.93;;
8594;SDS011;4335;48.860;9.198;2024-01-06T01:19:15;4.10;;;2.50;;
8594;SDS011;4335;48.860;9.198;2024-01-06T01:21:42;6.03;;;2.70;;
8594;SDS011;4335;48.860;9.198;2024-01-06T01:24:09;5.60;;;2.60;;
8594;SDS011;4335;48.860;9.198;2024-01-06T01:26:38;4.40;;;2.60;;
8594;SDS011;4335;48.860;9.198;2024-01-06T01:29:05;6.33;;;2.40;;
8594;SDS011;4335;48.860;9.198;2024-01-06T01:31:31;3.17;;;2.40;;
8594;SDS011;4335;48.860;9.198;2024-01-06T01:34:02;5.03;;;2.70;;
8594;SDS011;4335;48.860;9.198;2024-01-06T01:36:28;3.20;;;2.30;;
8594;SDS011;4335;48.860;9.198;2024-01-06T01:39:04;2.57;;;2.00;;
8594;SDS011;4335;48.860;9.198;2024-01-06T01:41:31;2.47;;;2.07;;
8594;SDS011;4335;48.860;9.198;2024-01-06T01:44:04;3.00;;;2.00;;
8594;SDS011;4335;48.860;9.198;2024-01-06T01:46:31;3.33;;;2.13;;
8594;SDS011;4335;48.860;9.198;2024-01-06T01:49:00;4.50;;;2.30;;
8594;SDS011;4335;48.860;9.198;2024-01-06T01:51:29;4.40;;;2.30;;
8594;SDS011;4335;48.860;9.198;2024-01-06T01:53:59;5.30;;;2.40;;
8594;SDS011;4335;48.860;9.198;2024-01-06T01:56:34;6.20;;;2.00;;
8594;SDS011;4335;48.860;9.198;2024-01-06T01:59:03;4.87;;;2.07;;
8594;SDS011;4335;48.860;9.198;2024-01-06T02:01:38;3.90;;;2.13;;
8594;SDS011;4335;48.860;9.198;2024-01-06T02:04:06;3.33;;;2.17;;
8594;SDS011;4335;48.860;9.198;2024-01-06T02:06:33;4.33;;;2.60;;
8594;SDS011;4335;48.860;9.198;2024-01-06T02:09:00;3.13;;;2.03;;
8594;SDS011;4335;48.860;9.198;2024-01-06T02:11:30;3.20;;;2.10;;
8594;SDS011;4335;48.860;9.198;2024-01-06T02:13:59;2.87;;;2.03;;
8594;SDS011;4335;48.860;9.198;2024-01-06T02:16:29;4.47;;;1.70;;
8594;SDS011;4335;48.860;9.198;2024-01-06T02:18:58;3.10;;;2.60;;
8594;SDS011;4335;48.860;9.198;2024-01-06T02:21:26;3.13;;;1.80;;
8594;SDS011;4335;48.860;9.198;2024-01-06T02:23:55;4.03;;;1.83;;
8594;SDS011;4335;48.860;9.198;2024-01-06T02:26:22;4.87;;;1.93;;
8594;SDS011;4335;48.860;9.198;2024-01-06T02:28:48;5.20;;;1.87;;
8594;SDS011;4335;48.860;9.198;2024-01-06T02:31:15;3.43;;;2.10;;
8594;SDS011;4335;48.860;9.198;2024-01-06T02:33:42;3.50;;;1.93;;
8594;SDS011;4335;48.860;9.198;2024-01-06T02:36:08;4.03;;;2.10;;
8594;SDS011;4335;48.860;9.198;2024-01-06T02:38:35;2.93;;;1.87;;
8594;SDS011;4335;48.860;9.198;2024-01-06T02:41:03;5.93;;;2.70;;
8594;SDS011;4335;48.860;9.198;2024-01-06T02:43:29;3.03;;;2.00;;
8594;SDS011;4335;48.860;9.198;2024-01-06T02:45:56;4.60;;;1.90;;
8594;SDS011;4335;48.860;9.198;2024-01-06T02:48:29;4.63;;;2.20;;
8594;SDS011;4335;48.860;9.198;2024-01-06T02:50:56;4.97;;;1.93;;
8594;SDS011;4335;48.860;9.198;2024-01-06T02:53:25;4.40;;;1.97;;
8594;SDS011;4335;48.860;9.198;2024-01-06T02:56:01;15.63;;;10.93;;
8594;SDS011;4335;48.860;9.198;2024-01-06T02:58:32;4.40;;;2.77;;
8594;SDS011;4335;48.860;9.198;2024-01-06T03:00:59;3.87;;;1.90;;
8594;SDS011;4335;48.860;9.198;2024-01-06T03:03:26;4.63;;;1.70;;
8594;SDS011;4335;48.860;9.198;2024-01-06T03:05:52;2.77;;;2.20;;
8594;SDS011;4335;48.860;9.198;2024-01-06T03:08:19;3.50;;;2.67;;
8594;SDS011;4335;48.860;9.198;2024-01-06T03:10:49;5.47;;;2.00;;
8594;SDS011;4335;48.860;9.198;2024-01-06T03:13:25;2.27;;;1.80;;
8594;SDS011;4335;48.860;9.198;2024-01-06T03:15:52;5.63;;;2.40;;
8594;SDS011;4335;48.860;9.198;2024-01-06T03:18:19;3.37;;;2.07;;
8594;SDS011;4335;48.860;9.198;2024-01-06T03:20:46;3.67;;;1.90;;
8594;SDS011;4335;48.860;9.198;2024-01-06T03:23:18;5.03;;;2.37;;
8594;SDS011;4335;48.860;9.198;2024-01-06T03:25:51;4.33;;;2.03;;
8594;SDS011;4335;48.860;9.198;2024-01-06T03:28:18;3.73;;;2.03;;
8594;SDS011;4335;48.860;9.198;2024-01-06T03:30:51;5.63;;;2.17;;
8594;SDS011;4335;48.860;9.198;2024-01-06T03:33:21;2.80;;;2.37;;
8594;SDS011;4335;48.860;9.198;2024-01-06T03:35:51;4.17;;;1.90;;
8594;SDS011;4335;48.860;9.198;2024-01-06T03:38:21;3.80;;;2.30;;
8594;SDS011;4335;48.860;9.198;2024-01-06T03:40:47;3.97;;;2.10;;
8594;SDS011;4335;48.860;9.198;2024-01-06T03:43:17;2.27;;;2.00;;
8594;SDS011;4335;48.860;9.198;2024-01-06T03:45:51;4.00;;;2.40;;
8594;SDS011;4335;48.860;9.198;2024-01-06T03:48:20;7.00;;;2.30;;
8594;SDS011;4335;48.860;9.198;2024-01-06T03:50:50;3.10;;;2.00;;
8594;SDS011;4335;48.860;9.198;2024-01-06T03:53:17;4.80;;;2.23;;
8594;SDS011;4335;48.860;9.198;2024-01-06T03:55:45;3.30;;;1.70;;
8594;SDS011;4335;48.860;9.198;2024-01-06T03:58:12;3.73;;;2.00;;
8594;SDS011;4335;48.860;9.198;2024-01-06T04:00:38;3.17;;;1.53;;
8594;SDS011;4335;48.860;9.198;2024-01-06T04:03:09;3.13;;;1.73;;
8594;SDS011;4335;48.860;9.198;2024-01-06T04:05:39;4.27;;;1.60;;
8594;SDS011;4335;48.860;9.198;2024-01-06T04:08:06;3.03;;;1.80;;
8594;SDS011;4335;48.860;9.198;2024-01-06T04:10:36;3.07;;;1.87;;
8594;SDS011;4335;48.860;9.198;2024-01-06T04:13:03;4.97;;;2.10;;
8594;SDS011;4335;48.860;9.198;2024-01-06T04:15:30;5.00;;;2.07;;
8594;SDS011;4335;48.860;9.198;2024-01-06T04:17:59;5.33;;;2.13;;
8594;SDS011;4335;48.860;9.198;2024-01-06T04:20:32;2.50;;;2.10;;
8594;SDS011;4335;48.860;9.198;2024-01-06T04:23:01;4.87;;;2.10;;
8594;SDS011;4335;48.860;9.198;2024-01-06T04:25:28;2.10;;;1.90;;
8594;SDS011;4335;48.860;9.198;2024-01-06T04:27:58;3.30;;;2.00;;
8594;SDS011;4335;48.860;9.198;2024-01-06T04:30:24;2.60;;;1.80;;
8594;SDS011;4335;48.860;9.198;2024-01-06T04:32:57;4.10;;;2.00;;
8594;SDS011;4335;48.860;9.198;2024-01-06T04:35:27;2.80;;;1.83;;
8594;SDS011;4335;48.860;9.198;2024-01-06T04:37:54;2.63;;;1.77;;
8594;SDS011;4335;48.860;9.198;2024-01-06T04:40:21;3.20;;;1.73;;
8594;SDS011;4335;48.860;9.198;2024-01-06T04:42:53;4.40;;;2.43;;
8594;SDS011;4335;48.860;9.198;2024-01-06T04:45:20;2.10;;;1.93;;
8594;SDS011;4335;48.860;9.198;2024-01-06T04:47:52;4.33;;;1.93;;
8594;SDS011;4335;48.860;9.198;2024-01-06T04:50:21;4.90;;;2.17;;
8594;SDS011;4335;48.860;9.198;2024-01-06T04:52:48;3.37;;;2.00;;
8594;SDS011;4335;48.860;9.198;2024-01-06T04:55:15;3.63;;;2.23;;
8594;SDS011;4335;48.860;9.198;2024-01-06T04:57:42;7.03;;;2.90;;
8594;SDS011;4335;48.860;9.198;2024-01-06T05:00:12;4.70;;;2.17;;
8594;SDS011;4335;48.860;9.198;2024-01-06T05:02:39;4.13;;;2.00;;
8594;SDS011;4335;48.860;9.198;2024-01-06T05:05:06;4.97;;;2.37;;
8594;SDS011;4335;48.860;9.198;2024-01-06T05:07:33;3.90;;;1.87;;
8594;SDS011;4335;48.860;9.198;2024-01-06T05:10:06;6.13;;;2.13;;
8594;SDS011;4335;48.860;9.198;2024-01-06T05:12:38;4.23;;;2.13;;
8594;SDS011;4335;48.860;9.198;2024-01-06T05:15:04;2.77;;;1.90;;
8594;SDS011;4335;48.860;9.198;2024-01-06T05:17:32;3.63;;;1.90;;
8594;SDS011;4335;48.860;9.198;2024-01-06T05:20:01;3.93;;;2.50;;
8594;SDS011;4335;48.860;9.198;2024-01-06T05:22:29;3.63;;;2.13;;
8594;SDS011;4335;48.860;9.198;2024-01-06T05:24:55;4.93;;;3.00;;
8594;SDS011;4335;48.860;9.198;2024-01-06T05:27:25;3.97;;;2.03;;
8594;SDS011;4335;48.860;9.198;2024-01-06T05:29:52;3.93;;;2.40;;
8594;SDS011;4335;48.860;9.198;2024-01-06T05:32:19;2.90;;;1.77;;
8594;SDS011;4335;48.860;9.198;2024-01-06T05:34:48;4.23;;;2.53;;
8594;SDS011;4335;48.860;9.198;2024-01-06T05:37:15;6.07;;;2.37;;
8594;SDS011;4335;48.860;9.198;2024-01-06T05:39:42;3.17;;;2.37;;
8594;SDS011;4335;48.860;9.198;2024-01-06T05:42:09;3.30;;;1.83;;
8594;SDS011;4335;48.860;9.198;2024-01-06T05:44:40;3.03;;;2.27;;
8594;SDS011;4335;48.860;9.198;2024-01-06T05:47:07;3.00;;;1.83;;
8594;SDS011;4335;48.860;9.198;2024-01-06T05:49:34;3.40;;;2.03;;
8594;SDS011;4335;48.860;9.198;2024-01-06T05:52:07;4.67;;;2.30;;
8594;SDS011;4335;48.860;9.198;2024-01-06T05:54:40;3.07;;;2.23;;
8594;SDS011;4335;48.860;9.198;2024-01-06T05:57:07;4.83;;;2.43;;
8594;SDS011;4335;48.860;9.198;2024-01-06T05:59:34;4.30;;;2.60;;
8594;SDS011;4335;48.860;9.198;2024-01-06T06:02:00;3.60;;;2.13;;
8594;SDS011;4335;48.860;9.198;2024-01-06T06:04:28;4.07;;;2.40;;
8594;SDS011;4335;48.860;9.198;2024-01-06T06:06:55;3.23;;;2.23;;
8594;SDS011;4335;48.860;9.198;2024-01-06T06:09:21;5.13;;;2.73;;
8594;SDS011;4335;48.860;9.198;2024-01-06T06:11:48;4.03;;;2.40;;
8594;SDS011;4335;48.860;9.198;2024-01-06T06:14:15;4.13;;;2.87;;
8594;SDS011;4335;48.860;9.198;2024-01-06T06:16:44;4.53;;;2.47;;
8594;SDS011;4335;48.860;9.198;2024-01-06T06:19:13;2.90;;;2.30;;
8594;SDS011;4335;48.860;9.198;2024-01-06T06:21:50;3.70;;;2.77;;
8594;SDS011;4335;48.860;9.198;2024-01-06T06:24:17;7.37;;;2.77;;
8594;SDS011;4335;48.860;9.198;2024-01-06T06:26:44;5.20;;;2.40;;
8594;SDS011;4335;48.860;9.198;2024-01-06T06:29:10;5.50;;;2.80;;
8594;SDS011;4335;48.860;9.198;2024-01-06T06:31:40;5.30;;;2.83;;
8594;SDS011;4335;48.860;9.198;2024-01-06T06:34:08;3.80;;;2.33;;
8594;SDS011;4335;48.860;9.198;2024-01-06T06:36:35;4.33;;;2.67;;
8594;SDS011;4335;48.860;9.198;2024-01-06T06:39:02;2.60;;;2.20;;
8594;SDS011;4335;48.860;9.198;2024-01-06T06:41:29;4.97;;;2.43;;
8594;SDS011;4335;48.860;9.198;2024-01-06T06:43:57;2.57;;;2.37;;
8594;SDS011;4335;48.860;9.198;2024-01-06T06:46:23;6.40;;;2.70;;
8594;SDS011;4335;48.860;9.198;2024-01-06T06:48:50;3.40;;;2.13;;
8594;SDS011;4335;48.860;9.198;2024-01-06T06:51:18;4.60;;;2.83;;
8594;SDS011;4335;48.860;9.198;2024-01-06T06:53:47;3.87;;;2.50;;
8594;SDS011;4335;48.860;9.198;2024-01-06T06:56:17;2.40;;;2.20;;
8594;SDS011;4335;48.860;9.198;2024-01-06T06:58:43;3.87;;;2.37;;
8594;SDS011;4335;48.860;9.198;2024-01-06T07:01:13;4.47;;;2.33;;
8594;SDS011;4335;48.860;9.198;2024-01-06T07:03:40;2.47;;;2.27;;
8594;SDS011;4335;48.860;9.198;2024-01-06T07:06:13;2.97;;;2.23;;
8594;SDS011;4335;48.860;9.198;2024-01-06T07:08:49;3.20;;;2.40;;
8594;SDS011;4335;48.860;9.198;2024-01-06T07:11:15;2.70;;;2.50;;
8594;SDS011;4335;48.860;9.198;2024-01-06T07:13:49;4.37;;;2.30;;
8594;SDS011;4335;48.860;9.198;2024-01-06T07:16:19;2.73;;;2.23;;
8594;SDS011;4335;48.860;9.198;2024-01-06T07:18:45;3.37;;;2.37;;
8594;SDS011;4335;48.860;9.198;2024-01-06T07:21:15;3.30;;;2.60;;
8594;SDS011;4335;48.860;9.198;2024-01-06T07:23:42;3.70;;;2.60;;
8594;SDS011;4335;48.860;9.198;2024-01-06T07:26:11;3.17;;;2.40;;
8594;SDS011;4335;48.860;9.198;2024-01-06T07:28:39;3.07;;;2.13;;
8594;SDS011;4335;48.860;9.198;2024-01-06T07:31:05;2.50;;;2.30;;
8594;SDS011;4335;48.860;9.198;2024-01-06T07:33:32;2.53;;;2.33;;
8594;SDS011;4335;48.860;9.198;2024-01-06T07:35:59;2.40;;;2.10;;
8594;SDS011;4335;48.860;9.198;2024-01-06T07:38:29;2.80;;;2.30;;
8594;SDS011;4335;48.860;9.198;2024-01-06T07:40:59;2.30;;;1.93;;
8594;SDS011;4335;48.860;9.198;2024-01-06T07:43:25;4.30;;;2.70;;
8594;SDS011;4335;48.860;9.198;2024-01-06T07:45:53;3.63;;;2.33;;
8594;SDS011;4335;48.860;9.198;2024-01-06T07:48:23;3.07;;;2.00;;
8594;SDS011;4335;48.860;9.198;2024-01-06T07:50:49;2.83;;;2.63;;
8594;SDS011;4335;48.860;9.198;2024-01-06T07:53:16;3.07;;;2.77;;
8594;SDS011;4335;48.860;9.198;2024-01-06T07:55:43;3.27;;;2.60;;
8594;SDS011;4335;48.860;9.198;2024-01-06T07:58:10;4.73;;;2.73;;
8594;SDS011;4335;48.860;9.198;2024-01-06T08:00:40;3.40;;;2.73;;
8594;SDS011;4335;48.860;9.198;2024-01-06T08:03:13;5.60;;;3.10;;
8594;SDS011;4335;48.860;9.198;2024-01-06T08:05:41;3.73;;;2.33;;
8594;SDS011;4335;48.860;9.198;2024-01-06T08:08:17;2.93;;;2.60;;
8594;SDS011;4335;48.860;9.198;2024-01-06T08:10:49;3.03;;;2.70;;
8594;SDS011;4335;48.860;9.198;2024-01-06T08:13:16;3.13;;;2.50;;
8594;SDS011;4335;48.860;9.198;2024-01-06T08:15:48;2.83;;;2.63;;
8594;SDS011;4335;48.860;9.198;2024-01-06T08:18:19;3.47;;;3.17;;
8594;SDS011;4335;48.860;9.198;2024-01-06T08:20:49;2.90;;;2.60;;
8594;SDS011;4335;48.860;9.198;2024-01-06T08:23:16;3.93;;;2.60;;
8594;SDS011;4335;48.860;9.198;2024-01-06T08:25:44;3.87;;;3.27;;
8594;SDS011;4335;48.860;9.198;2024-01-06T08:28:11;3.17;;;2.50;;
8594;SDS011;4335;48.860;9.198;2024-01-06T08:30:43;3.70;;;2.43;;
8594;SDS011;4335;48.860;9.198;2024-01-06T08:33:09;3.60;;;2.70;;
8594;SDS011;4335;48.860;9.198;2024-01-06T08:35:37;4.13;;;2.40;;
8594;SDS011;4335;48.860;9.198;2024-01-06T08:38:05;3.17;;;2.73;;
8594;SDS011;4335;48.860;9.198;2024-01-06T08:40:32;4.57;;;2.80;;
8594;SDS011;4335;48.860;9.198;2024-01-06T08:43:02;3.13;;;2.30;;
8594;SDS011;4335;48.860;9.198;2024-01-06T08:45:29;7.27;;;2.97;;
8594;SDS011;4335;48.860;9.198;2024-01-06T08:48:05;3.83;;;2.87;;
8594;SDS011;4335;48.860;9.198;2024-01-06T08:50:44;5.23;;;2.80;;
8594;SDS011;4335;48.860;9.198;2024-01-06T08:53:11;3.47;;;3.00;;
8594;SDS011;4335;48.860;9.198;2024-01-06T08:55:38;4.43;;;3.13;;
8594;SDS011;4335;48.860;9.198;2024-01-06T08:58:08;4.97;;;3.93;;
8594;SDS011;4335;48.860;9.198;2024-01-06T09:00:34;3.67;;;3.27;;
8594;SDS011;4335;48.860;9.198;2024-01-06T09:03:01;3.37;;;3.03;;
8594;SDS011;4335;48.860;9.198;2024-01-06T09:05:28;3.60;;;2.73;;
8594;SDS011;4335;48.860;9.198;2024-01-06T09:07:55;7.00;;;3.97;;
8594;SDS011;4335;48.860;9.198;2024-01-06T09:10:25;3.70;;;3.10;;
8594;SDS011;4335;48.860;9.198;2024-01-06T09:12:54;6.13;;;3.63;;
8594;SDS011;4335;48.860;9.198;2024-01-06T09:15:23;4.50;;;2.93;;
8594;SDS011;4335;48.860;9.198;2024-01-06T09:17:50;4.93;;;3.33;;
8594;SDS011;4335;48.860;9.198;2024-01-06T09:20:17;4.97;;;3.40;;
8594;SDS011;4335;48.860;9.198;2024-01-06T09:22:48;3.53;;;2.00;;
8594;SDS011;4335;48.860;9.198;2024-01-06T09:25:21;4.00;;;2.63;;
8594;SDS011;4335;48.860;9.198;2024-01-06T09:27:49;2.67;;;2.47;;
8594;SDS011;4335;48.860;9.198;2024-01-06T09:30:19;2.50;;;2.30;;
8594;SDS011;4335;48.860;9.198;2024-01-06T09:32:46;4.03;;;2.77;;
8594;SDS011;4335;48.860;9.198;2024-01-06T09:35:12;2.50;;;2.30;;
8594;SDS011;4335;48.860;9.198;2024-01-06T09:37:42;2.70;;;2.50;;
8594;SDS011;4335;48.860;9.198;2024-01-06T09:40:12;4.13;;;2.80;;
8594;SDS011;4335;48.860;9.198;2024-01-06T09:42:40;3.70;;;2.73;;
8594;SDS011;4335;48.860;9.198;2024-01-06T09:45:07;4.03;;;3.27;;
8594;SDS011;4335;48.860;9.198;2024-01-06T09:47:37;4.40;;;3.13;;
8594;SDS011;4335;48.860;9.198;2024-01-06T09:50:09;3.70;;;2.47;;
8594;SDS011;4335;48.860;9.198;2024-01-06T09:52:39;3.93;;;2.90;;
8594;SDS011;4335;48.860;9.198;2024-01-06T09:55:08;4.17;;;3.13;;
8594;SDS011;4335;48.860;9.198;2024-01-06T09:57:37;3.10;;;2.70;;
8594;SDS011;4335;48.860;9.198;2024-01-06T10:00:06;3.20;;;2.90;;
8594;SDS011;4335;48.860;9.198;2024-01-06T10:02:34;4.47;;;3.03;;
8594;SDS011;4335;48.860;9.198;2024-01-06T10:05:01;3.20;;;2.90;;
8594;SDS011;4335;48.860;9.198;2024-01-06T10:07:33;3.63;;;3.33;;
8594;SDS011;4335;48.860;9.198;2024-01-06T10:10:00;4.27;;;3.80;;
8594;SDS011;4335;48.860;9.198;2024-01-06T10:12:27;3.43;;;2.67;;
8594;SDS011;4335;48.860;9.198;2024-01-06T10:14:54;3.47;;;3.00;;
8594;SDS011;4335;48.860;9.198;2024-01-06T10:17:22;3.17;;;2.50;;
8594;SDS011;4335;48.860;9.198;2024-01-06T10:19:49;4.60;;;3.20;;
8594;SDS011;4335;48.860;9.198;2024-01-06T10:22:22;4.80;;;3.90;;
8594;SDS011;4335;48.860;9.198;2024-01-06T10:25:09;3.10;;;2.80;;
8594;SDS011;4335;48.860;9.198;2024-01-06T10:27:46;4.20;;;3.07;;
8594;SDS011;4335;48.860;9.198;2024-01-06T10:30:13;2.93;;;2.73;;
8594;SDS011;4335;48.860;9.198;2024-01-06T10:32:50;6.00;;;2.90;;
8594;SDS011;4335;48.860;9.198;2024-01-06T10:35:26;4.00;;;3.50;;
8594;SDS011;4335;48.860;9.198;2024-01-06T10:37:59;3.40;;;3.07;;
8594;SDS011;4335;48.860;9.198;2024-01-06T10:43:32;3.10;;;2.80;;
8594;SDS011;4335;48.860;9.198;2024-01-06T10:46:02;3.50;;;3.17;;
8594;SDS011;4335;48.860;9.198;2024-01-06T10:51:42;3.63;;;2.57;;
8594;SDS011;4335;48.860;9.198;2024-01-06T10:54:13;4.17;;;3.00;;
8594;SDS011;4335;48.860;9.198;2024-01-06T10:56:41;2.70;;;2.50;;
8594;SDS011;4335;48.860;9.198;2024-01-06T10:59:09;3.07;;;2.77;;
8594;SDS011;4335;48.860;9.198;2024-01-06T11:01:40;3.50;;;3.20;;
8594;SDS011;4335;48.860;9.198;2024-01-06T11:04:19;4.27;;;3.37;;
8594;SDS011;4335;48.860;9.198;2024-01-06T11:06:53;3.60;;;3.30;;
8594;SDS011;4335;48.860;9.198;2024-01-06T11:09:27;5.37;;;3.83;;
8594;SDS011;4335;48.860;9.198;2024-01-06T11:12:00;3.37;;;3.07;;
8594;SDS011;4335;48.860;9.198;2024-01-06T11:14:27;5.10;;;4.20;;
8594;SDS011;4335;48.860;9.198;2024-01-06T11:16:54;4.30;;;3.90;;
8594;SDS011;4335;48.860;9.198;2024-01-06T11:19:51;4.67;;;3.70;;
8594;SDS011;4335;48.860;9.198;2024-01-06T11:22:24;4.40;;;4.00;;
8594;SDS011;4335;48.860;9.198;2024-01-06T11:24:53;4.63;;;4.20;;
8594;SDS011;4335;48.860;9.198;2024-01-06T11:27:22;4.60;;;3.73;;
8594;SDS011;4335;48.860;9.198;2024-01-06T11:29:59;4.13;;;3.70;;
8594;SDS011;4335;48.860;9.198;2024-01-06T11:32:30;4.97;;;4.20;;
8594;SDS011;4335;48.860;9.198;2024-01-06T11:35:05;4.93;;;4.37;;
8594;SDS011;4335;48.860;9.198;2024-01-06T11:37:42;4.53;;;4.13;;
8594;SDS011;4335;48.860;9.198;2024-01-06T11:40:22;6.70;;;4.00;;
8594;SDS011;4335;48.860;9.198;2024-01-06T11:42:58;5.87;;;4.67;;
8594;SDS011;4335;48.860;9.198;2024-01-06T11:45:42;6.57;;;5.40;;
8594;SDS011;4335;48.860;9.198;2024-01-06T11:48:12;5.83;;;5.23;;
8594;SDS011;4335;48.860;9.198;2024-01-06T11:50:45;5.60;;;5.00;;
8594;SDS011;4335;48.860;9.198;2024-01-06T11:53:15;4.70;;;3.93;;
8594;SDS011;4335;48.860;9.198;2024-01-06T11:55:45;6.17;;;4.67;;
8594;SDS011;4335;48.860;9.198;2024-01-06T11:58:16;5.73;;;4.23;;
8594;SDS011;4335;48.860;9.198;2024-01-06T12:00:56;5.77;;;4.70;;
8594;SDS011;4335;48.860;9.198;2024-01-06T12:03:23;5.07;;;4.57;;
8594;SDS011;4335;48.860;9.198;2024-01-06T12:06:01;4.47;;;4.07;;
8594;SDS011;4335;48.860;9.198;2024-01-06T12:08:29;4.60;;;4.10;;
8594;SDS011;4335;48.860;9.198;2024-01-06T12:11:02;5.53;;;4.93;;
8594;SDS011;4335;48.860;9.198;2024-01-06T12:13:38;4.53;;;4.10;;
8594;SDS011;4335;48.860;9.198;2024-01-06T12:16:07;5.57;;;4.00;;
8594;SDS011;4335;48.860;9.198;2024-01-06T12:18:38;5.00;;;4.30;;
8594;SDS011;4335;48.860;9.198;2024-01-06T12:21:11;6.53;;;5.00;;
8594;SDS011;4335;48.860;9.198;2024-01-06T12:23:38;5.17;;;4.43;;
8594;SDS011;4335;48.860;9.198;2024-01-06T12:26:08;5.97;;;5.37;;
8594;SDS011;4335;48.860;9.198;2024-01-06T12:28:39;6.43;;;5.67;;
8594;SDS011;4335;48.860;9.198;2024-01-06T12:31:09;5.73;;;4.90;;
8594;SDS011;4335;48.860;9.198;2024-01-06T12:33:40;7.93;;;4.30;;
8594;SDS011;4335;48.860;9.198;2024-01-06T12:36:10;5.20;;;4.27;;
8594;SDS011;4335;48.860;9.198;2024-01-06T12:38:43;6.07;;;4.53;;
8594;SDS011;4335;48.860;9.198;2024-01-06T12:41:11;5.60;;;4.70;;
8594;SDS011;4335;48.860;9.198;2024-01-06T12:43:38;5.17;;;4.67;;
8594;SDS011;4335;48.860;9.198;2024-01-06T12:46:04;5.90;;;4.40;;
8594;SDS011;4335;48.860;9.198;2024-01-06T12:48:31;5.27;;;4.77;;
8594;SDS011;4335;48.860;9.198;2024-01-06T12:51:04;4.80;;;4.40;;
8594;SDS011;4335;48.860;9.198;2024-01-06T12:53:32;5.00;;;4.60;;
8594;SDS011;4335;48.860;9.198;2024-01-06T12:55:59;5.50;;;5.00;;
8594;SDS011;4335;48.860;9.198;2024-01-06T12:58:26;4.73;;;4.33;;
8594;SDS011;4335;48.860;9.198;2024-01-06T13:00:52;5.67;;;4.87;;
8594;SDS011;4335;48.860;9.198;2024-01-06T13:03:19;5.17;;;4.70;;
8594;SDS011;4335;48.860;9.198;2024-01-06T13:05:46;5.77;;;4.83;;
8594;SDS011;4335;48.860;9.198;2024-01-06T13:08:13;5.30;;;4.80;;
8594;SDS011;4335;48.860;9.198;2024-01-06T13:10:41;5.13;;;4.73;;
8594;SDS011;4335;48.860;9.198;2024-01-06T13:13:08;5.13;;;4.73;;
8594;SDS011;4335;48.860;9.198;2024-01-06T13:15:35;6.40;;;4.90;;
8594;SDS011;4335;48.860;9.198;2024-01-06T13:18:02;5.90;;;5.40;;
8594;SDS011;4335;48.860;9.198;2024-01-06T13:20:29;5.80;;;5.20;;
8594;SDS011;4335;48.860;9.198;2024-01-06T13:22:57;5.80;;;5.17;;
8594;SDS011;4335;48.860;9.198;2024-01-06T13:25:24;5.90;;;5.30;;
8594;SDS011;4335;48.860;9.198;2024-01-06T13:27:51;5.57;;;4.93;;
8594;SDS011;4335;48.860;9.198;2024-01-06T13:30:21;5.50;;;5.00;;
8594;SDS011;4335;48.860;9.198;2024-01-06T13:32:48;5.77;;;5.23;;
8594;SDS011;4335;48.860;9.198;2024-01-06T13:35:18;6.97;;;5.90;;
8594;SDS011;4335;48.860;9.198;2024-01-06T13:37:48;6.53;;;5.80;;
8594;SDS011;4335;48.860;9.198;2024-01-06T13:40:16;7.80;;;6.57;;
8594;SDS011;4335;48.860;9.198;2024-01-06T13:42:49;7.73;;;6.10;;
8594;SDS011;4335;48.860;9.198;2024-01-06T13:45:20;6.67;;;6.03;;
8594;SDS011;4335;48.860;9.198;2024-01-06T13:47:47;5.67;;;5.07;;
8594;SDS011;4335;48.860;9.198;2024-01-06T13:50:20;7.20;;;5.90;;
8594;SDS011;4335;48.860;9.198;2024-01-06T13:52:47;7.37;;;5.80;;
8594;SDS011;4335;48.860;9.198;2024-01-06T13:55:23;6.53;;;5.93;;
8594;SDS011;4335;48.860;9.198;2024-01-06T13:57:51;5.50;;;5.00;;
8594;SDS011;4335;48.860;9.198;2024-01-06T14:00:23;7.27;;;5.87;;
8594;SDS011;4335;48.860;9.198;2024-01-06T14:02:51;6.50;;;5.37;;
8594;SDS011;4335;48.860;9.198;2024-01-06T14:05:22;7.17;;;6.43;;
8594;SDS011;4335;48.860;9.198;2024-01-06T14:07:52;6.23;;;5.63;;
8594;SDS011;4335;48.860;9.198;2024-01-06T14:10:19;6.27;;;5.67;;
8594;SDS011;4335;48.860;9.198;2024-01-06T14:12:45;5.67;;;5.07;;
8594;SDS011;4335;48.860;9.198;2024-01-06T14:15:19;5.27;;;4.77;;
8594;SDS011;4335;48.860;9.198;2024-01-06T14:17:45;5.70;;;5.20;;
8594;SDS011;4335;48.860;9.198;2024-01-06T14:20:14;7.33;;;6.60;;
8594;SDS011;4335;48.860;9.198;2024-01-06T14:22:42;7.27;;;6.37;;
8594;SDS011;4335;48.860;9.198;2024-01-06T14:25:12;6.87;;;5.97;;
8594;SDS011;4335;48.860;9.198;2024-01-06T14:27:39;7.73;;;5.80;;
8594;SDS011;4335;48.860;9.198;2024-01-06T14:30:15;10.27;;;5.67;;
8594;SDS011;4335;48.860;9.198;2024-01-06T14:32:42;6.67;;;6.00;;
8594;SDS011;4335;48.860;9.198;2024-01-06T14:35:12;8.73;;;6.63;;
8594;SDS011;4335;48.860;9.198;2024-01-06T14:37:39;7.67;;;6.07;;
8594;SDS011;4335;48.860;9.198;2024-01-06T14:40:11;7.33;;;6.23;;
8594;SDS011;4335;48.860;9.198;2024-01-06T14:42:44;7.57;;;6.43;;
8594;SDS011;4335;48.860;9.198;2024-01-06T14:45:17;20.20;;;6.27;;
8594;SDS011;4335;48.860;9.198;2024-01-06T14:47:44;8.83;;;6.60;;
8594;SDS011;4335;48.860;9.198;2024-01-06T14:50:18;7.20;;;6.17;;
8594;SDS011;4335;48.860;9.198;2024-01-06T14:52:45;8.20;;;6.10;;
8594;SDS011;4335;48.860;9.198;2024-01-06T14:55:15;6.63;;;5.50;;
8594;SDS011;4335;48.860;9.198;2024-01-06T14:57:49;6.97;;;6.27;;
8594;SDS011;4335;48.860;9.198;2024-01-06T15:00:20;6.70;;;6.10;;
8594;SDS011;4335;48.860;9.198;2024-01-06T15:02:49;7.07;;;6.43;;
8594;SDS011;4335;48.860;9.198;2024-01-06T15:05:19;9.07;;;6.70;;
8594;SDS011;4335;48.860;9.198;2024-01-06T15:07:57;12.80;;;7.70;;
8594;SDS011;4335;48.860;9.198;2024-01-06T15:10:23;13.17;;;7.90;;
8594;SDS011;4335;48.860;9.198;2024-01-06T15:12:50;11.73;;;7.00;;
8594;SDS011;4335;48.860;9.198;2024-01-06T15:15:17;7.67;;;6.60;;
8594;SDS011;4335;48.860;9.198;2024-01-06T15:17:44;7.03;;;5.93;;
8594;SDS011;4335;48.860;9.198;2024-01-06T15:20:11;8.00;;;7.30;;
8594;SDS011;4335;48.860;9.198;2024-01-06T15:22:39;7.83;;;7.03;;
8594;SDS011;4335;48.860;9.198;2024-01-06T15:25:12;6.97;;;6.33;;
8594;SDS011;4335;48.860;9.198;2024-01-06T15:27:38;11.00;;;7.63;;
8594;SDS011;4335;48.860;9.198;2024-01-06T15:30:08;8.53;;;6.67;;
8594;SDS011;4335;48.860;9.198;2024-01-06T15:32:35;7.87;;;6.53;;
8594;SDS011;4335;48.860;9.198;2024-01-06T15:35:04;9.70;;;8.10;;